This is the latest recevied weather packets stored in our database for station/object KD2CRT. If no packets are shown the sender has not sent any weather packets the latest 10 day(s).
| Time | Temp. | Humidity | Pressure | Rain* | Wind** | Luminosity | Snow |
|---|---|---|---|---|---|---|---|
| 1777870784 | 5° C | 74% | 999 hPa | 0 mm | - | - | - |
| 1777867230 | 6.11° C | 67% | 998.6 hPa | 0 mm | - | - | - |
| 1777863587 | 7.22° C | 61% | 998.3 hPa | 0 mm | - | - | - |
| 1777856384 | 11.11° C | 47% | 997.6 hPa | 0 mm | - | - | - |
| 1777852785 | 13.89° C | 37% | 997 hPa | 0 mm | - | - | - |
| 1777849187 | 16.11° C | 31% | 996.6 hPa | 0 mm | - | - | - |
| 1777841995 | 17.22° C | 33% | 996.4 hPa | 0 mm | - | - | - |
| 1777834792 | 16.11° C | 34% | 997.1 hPa | 0 mm | - | - | - |
| 1777827602 | 13.33° C | 43% | 997.9 hPa | 0 mm | - | - | - |
| 1777820391 | 11.11° C | 45% | 998.7 hPa | 0 mm | - | - | - |
| 1777820387 | 11.11° C | 45% | 998.7 hPa | 0 mm | - | - | - |
| 1777816792 | 11.67° C | 51% | 998.6 hPa | 0 mm | - | - | - |
| 1777816789 | 11.67° C | 50% | 998.6 hPa | 0 mm | - | - | - |
| 1777809599 | 7.78° C | 62% | 998.5 hPa | 0 mm | - | - | - |
| 1777802393 | 7.22° C | 59% | 997.1 hPa | 0 mm | - | - | - |
| 1777795203 | 7.78° C | 56% | 996.4 hPa | 0 mm | - | - | - |
| 1777788008 | 8.89° C | 54% | 996.5 hPa | 0 mm | - | - | - |
| 1777780790 | 8.89° C | 56% | 997 hPa | 0 mm | - | - | - |
| 1777773597 | 11.11° C | 49% | 997 hPa | 0 mm | - | - | - |
| 1777766393 | 13.33° C | 43% | 996.1 hPa | 0 mm | - | - | - |
| 1777759195 | 16.67° C | 36% | 995.7 hPa | 0 mm | - | - | - |
| 1777751992 | 16.11° C | 39% | 995.8 hPa | 0 mm | - | - | - |
| 1777744798 | 18.33° C | 41% | 997.2 hPa | 0 mm | - | - | - |
| 1777737598 | 15° C | 50% | 997.9 hPa | 0 mm | - | - | - |
| 1777734042 | 13.89° C | 67% | 998.1 hPa | 0 mm | - | - | - |
* Rain latest hour (hover to see other rain measurements)
** Current wind speed in m/s (hover to see current wind gust speed)